Time;durP1;ratioP1;P1;durP2;ratioP2;P2;SDS_P1;SDS_P2;PMS_P1;PMS_P2;Temp;Humidity;BMP_temperature;BMP_pressure;BME280_temperature;BME280_humidity;BME280_pressure;Samples;Min_cycle;Max_cycle;Signal;HPM_P1;HPM_P2
2023/01/12 00:01:20;;;;;;;41.97;25.07;;;5.60;99.90;;;;;;5064525;28;20223;-86
2023/01/12 00:04:12;;;;;;;43.27;25.43;;;5.60;99.90;;;;;;5056449;28;20335;-86
2023/01/12 00:07:06;;;;;;;49.80;25.90;;;5.50;99.90;;;;;;5067088;28;20267;-87
2023/01/12 00:09:55;;;;;;;43.17;25.07;;;5.50;99.90;;;;;;5071232;28;20227;-85
2023/01/12 00:12:44;;;;;;;47.97;26.37;;;5.60;99.90;;;;;;5073491;28;20235;-84
2023/01/12 00:16:33;;;;;;;46.30;25.63;;;5.60;99.90;;;;;;5068102;28;20226;-85
2023/01/12 00:18:46;;;;;;;44.77;25.87;;;5.60;99.90;;;;;;5072313;28;20365;-85
2023/01/12 00:21:42;;;;;;;44.23;25.60;;;5.70;99.90;;;;;;5065658;28;20228;-87
2023/01/12 00:24:34;;;;;;;42.17;25.23;;;5.60;99.90;;;;;;5077009;28;20212;-86
2023/01/12 00:27:23;;;;;;;43.70;25.83;;;5.60;99.90;;;;;;5092266;28;20215;-82
2023/01/12 00:30:13;;;;;;;41.17;24.97;;;5.60;99.90;;;;;;5089386;28;20227;-85
2023/01/12 00:33:02;;;;;;;45.00;25.50;;;5.60;99.90;;;;;;5074045;28;20220;-88
2023/01/12 00:35:54;;;;;;;39.50;23.73;;;5.60;99.90;;;;;;5070581;28;20232;-87
2023/01/12 00:38:44;;;;;;;42.70;24.10;;;5.70;99.90;;;;;;5075276;28;20857;-87
2023/01/12 00:47:56;;;;;;;42.63;25.27;;;5.60;99.90;;;;;;5096306;28;20220;-88
2023/01/12 00:50:54;;;;;;;41.00;24.43;;;5.60;99.90;;;;;;5068689;28;20239;-87
2023/01/12 00:53:44;;;;;;;41.67;24.37;;;5.60;99.90;;;;;;5080557;28;20232;-86
2023/01/12 00:56:33;;;;;;;41.63;25.27;;;5.70;99.90;;;;;;5081731;28;20225;-84
2023/01/12 00:59:23;;;;;;;39.70;23.97;;;5.70;99.90;;;;;;5083879;28;20227;-89
2023/01/12 01:02:12;;;;;;;39.73;24.47;;;5.60;99.90;;;;;;5072877;28;20217;-88
2023/01/12 01:05:01;;;;;;;44.67;25.20;;;5.60;99.90;;;;;;5082048;28;20219;-89
2023/01/12 01:07:50;;;;;;;41.97;24.27;;;5.60;99.90;;;;;;5069303;28;20223;-90
2023/01/12 01:10:39;;;;;;;37.03;23.90;;;5.60;99.90;;;;;;5073652;28;20255;-90
2023/01/12 01:13:28;;;;;;;41.63;25.13;;;5.60;99.90;;;;;;5070759;28;20223;-88
2023/01/12 01:16:18;;;;;;;41.20;24.83;;;5.70;99.90;;;;;;5081076;28;20307;-88
2023/01/12 01:19:07;;;;;;;39.70;24.23;;;5.60;99.90;;;;;;5079405;28;20223;-89
2023/01/12 01:21:56;;;;;;;39.23;23.73;;;5.70;99.90;;;;;;5070256;28;20276;-89
2023/01/12 01:24:45;;;;;;;41.33;24.67;;;5.60;99.90;;;;;;5059070;28;20262;-89
2023/01/12 01:27:34;;;;;;;43.93;24.87;;;5.60;99.90;;;;;;5070804;28;20641;-90
2023/01/12 01:30:23;;;;;;;42.17;24.57;;;5.70;99.90;;;;;;5075711;28;20249;-87
2023/01/12 01:33:14;;;;;;;41.73;24.97;;;5.70;99.90;;;;;;5075456;28;20219;-90
2023/01/12 01:36:03;;;;;;;40.93;23.67;;;5.80;99.90;;;;;;5072925;28;21006;-90
2023/01/12 01:38:52;;;;;;;40.37;24.30;;;5.80;99.90;;;;;;5077058;28;21068;-89
2023/01/12 01:41:41;;;;;;;41.17;24.57;;;5.70;99.90;;;;;;5061935;28;20211;-88
2023/01/12 01:44:59;;;;;;;42.57;24.57;;;5.60;99.90;;;;;;5078786;28;20211;-89
2023/01/12 01:47:51;;;;;;;43.27;26.27;;;5.60;99.90;;;;;;5044544;28;20221;-88
2023/01/12 01:50:47;;;;;;;42.50;24.83;;;5.70;99.90;;;;;;5089077;28;20700;-89
2023/01/12 01:53:39;;;;;;;43.30;25.43;;;5.70;99.90;;;;;;5087902;28;20220;-88
2023/01/12 01:56:32;;;;;;;42.70;24.43;;;5.70;99.90;;;;;;5088573;28;20227;-90
2023/01/12 01:59:24;;;;;;;41.10;24.63;;;5.80;99.90;;;;;;5096474;28;20232;-89
2023/01/12 02:02:14;;;;;;;40.10;24.80;;;5.80;99.90;;;;;;5085570;28;20200;-89
2023/01/12 02:05:04;;;;;;;40.53;24.70;;;5.70;99.90;;;;;;5061376;28;20556;-90
2023/01/12 02:08:00;;;;;;;41.43;25.80;;;5.70;99.90;;;;;;5071070;28;20602;-89
2023/01/12 02:10:50;;;;;;;41.00;24.00;;;5.80;99.90;;;;;;5072360;28;20306;-89
2023/01/12 02:17:00;;;;;;;44.40;25.53;;;5.70;99.90;;;;;;5061700;28;20250;-89
2023/01/12 02:20:42;;;;;;;43.47;24.43;;;5.70;99.90;;;;;;5088873;28;20215;-90
2023/01/12 02:24:07;;;;;;;41.07;24.30;;;5.80;99.90;;;;;;5010061;28;20221;-87
2023/01/12 02:27:20;;;;;;;41.37;24.00;;;5.90;99.90;;;;;;5080106;28;20219;-86
2023/01/12 02:30:46;;;;;;;37.83;24.07;;;5.90;99.90;;;;;;5090225;28;20231;-86
2023/01/12 02:33:49;;;;;;;41.40;24.83;;;6.00;99.90;;;;;;5057889;28;20212;-88
2023/01/12 02:36:44;;;;;;;38.33;24.30;;;6.00;99.90;;;;;;5071542;28;20219;-85
2023/01/12 02:39:41;;;;;;;41.33;24.23;;;6.00;99.90;;;;;;5063755;28;20366;-87
2023/01/12 02:42:42;;;;;;;42.70;24.63;;;6.00;99.90;;;;;;5066831;28;20212;-86
2023/01/12 02:45:41;;;;;;;37.47;23.67;;;6.00;99.90;;;;;;5066537;28;20216;-85
2023/01/12 02:48:35;;;;;;;37.60;23.70;;;6.10;99.90;;;;;;5059134;28;20320;-85
2023/01/12 02:51:32;;;;;;;40.73;24.53;;;6.10;99.90;;;;;;5058762;28;20216;-84
2023/01/12 02:54:23;;;;;;;38.10;23.73;;;6.10;99.90;;;;;;5060660;28;20224;-84
2023/01/12 02:57:11;;;;;;;39.33;24.17;;;6.10;99.90;;;;;;5061641;28;20228;-84
2023/01/12 03:00:03;;;;;;;40.77;22.63;;;6.10;99.90;;;;;;5059918;28;21821;-84
2023/01/12 03:02:52;;;;;;;36.13;22.73;;;6.10;99.90;;;;;;5054872;28;20224;-83
2023/01/12 03:05:47;;;;;;;39.03;22.67;;;6.10;99.90;;;;;;5050151;28;20723;-83
2023/01/12 03:08:39;;;;;;;39.87;23.20;;;6.10;99.90;;;;;;5052514;28;20228;-85
2023/01/12 03:11:29;;;;;;;34.30;21.37;;;6.10;99.90;;;;;;5060064;28;20220;-85
2023/01/12 03:14:18;;;;;;;36.23;22.20;;;6.20;99.90;;;;;;5060416;28;20602;-85
2023/01/12 03:17:11;;;;;;;37.93;21.87;;;6.20;99.90;;;;;;5056802;28;20224;-84
2023/01/12 03:20:06;;;;;;;35.20;22.47;;;6.20;99.90;;;;;;5054688;28;20225;-84
2023/01/12 03:23:01;;;;;;;37.57;22.33;;;6.20;99.90;;;;;;5058130;28;20231;-85
2023/01/12 03:25:55;;;;;;;35.37;21.50;;;6.30;99.90;;;;;;5076061;28;20721;-85
2023/01/12 03:28:48;;;;;;;34.77;21.50;;;6.30;99.90;;;;;;5055845;28;20219;-84
2023/01/12 03:31:37;;;;;;;34.97;21.53;;;6.30;99.90;;;;;;5068032;28;20215;-85
2023/01/12 03:34:26;;;;;;;36.63;21.70;;;6.30;99.90;;;;;;5068693;28;20222;-86
2023/01/12 03:37:24;;;;;;;39.43;22.53;;;6.30;99.90;;;;;;5056589;28;20215;-87
2023/01/12 03:40:18;;;;;;;38.10;22.50;;;6.30;99.90;;;;;;5053797;28;20213;-85
2023/01/12 03:43:15;;;;;;;37.47;22.87;;;6.30;99.90;;;;;;5059237;28;20231;-85
2023/01/12 03:46:11;;;;;;;34.27;22.07;;;6.30;99.90;;;;;;5082165;28;20242;-83
2023/01/12 03:49:04;;;;;;;35.13;21.37;;;6.30;99.90;;;;;;5064294;28;20227;-85
2023/01/12 03:51:57;;;;;;;34.20;21.67;;;6.40;99.90;;;;;;5060219;28;20235;-85
2023/01/12 03:54:48;;;;;;;34.13;21.93;;;6.40;99.90;;;;;;5065898;28;20226;-84
2023/01/12 03:57:38;;;;;;;32.63;20.30;;;6.50;99.90;;;;;;5074565;28;20353;-84
2023/01/12 04:00:30;;;;;;;36.43;22.30;;;6.50;99.90;;;;;;5080612;28;20215;-85
2023/01/12 04:03:19;;;;;;;32.87;20.47;;;6.50;99.90;;;;;;5064279;28;20219;-84
2023/01/12 04:06:08;;;;;;;33.13;20.80;;;6.60;99.90;;;;;;5069127;28;20744;-85
2023/01/12 04:08:56;;;;;;;34.70;21.57;;;6.50;99.90;;;;;;5068332;28;20629;-85
2023/01/12 04:14:52;;;;;;;38.50;23.27;;;6.60;99.90;;;;;;5068527;28;20329;-85
2023/01/12 04:17:44;;;;;;;32.33;20.73;;;6.60;99.90;;;;;;5079326;28;20736;-85
2023/01/12 04:20:33;;;;;;;37.53;20.77;;;6.70;99.90;;;;;;5067424;28;20216;-85
2023/01/12 04:23:21;;;;;;;33.53;20.83;;;6.70;99.90;;;;;;5057450;28;20220;-86
2023/01/12 04:26:10;;;;;;;37.10;21.83;;;6.60;99.90;;;;;;5065293;28;20423;-83
2023/01/12 04:29:02;;;;;;;35.53;22.00;;;6.60;99.90;;;;;;5068601;28;20227;-85
2023/01/12 04:31:50;;;;;;;33.70;20.97;;;6.70;99.90;;;;;;5084774;28;20227;-84
2023/01/12 04:34:41;;;;;;;34.20;20.77;;;6.70;99.90;;;;;;5084981;28;20223;-84
2023/01/12 04:37:32;;;;;;;33.43;20.87;;;6.70;99.90;;;;;;5092943;28;20294;-86
2023/01/12 04:40:20;;;;;;;34.53;21.20;;;6.80;99.90;;;;;;5082838;28;20236;-89
2023/01/12 04:43:10;;;;;;;34.43;20.53;;;6.80;99.90;;;;;;5062489;28;20587;-90
2023/01/12 04:46:04;;;;;;;34.20;21.30;;;6.80;99.90;;;;;;5066614;28;20768;-86
2023/01/12 04:48:53;;;;;;;30.57;20.37;;;6.80;99.90;;;;;;5059170;28;20619;-83
2023/01/12 04:51:43;;;;;;;30.93;20.70;;;6.90;99.90;;;;;;5086598;28;20424;-84
2023/01/12 04:54:32;;;;;;;29.93;20.03;;;6.90;99.90;;;;;;5087138;28;20222;-86
2023/01/12 04:57:21;;;;;;;32.87;20.13;;;7.00;99.90;;;;;;5069322;28;20288;-85
2023/01/12 05:00:11;;;;;;;30.53;19.77;;;7.00;99.90;;;;;;5074558;28;20208;-86
2023/01/12 05:03:01;;;;;;;30.73;19.17;;;7.10;99.90;;;;;;5073852;28;20231;-86
2023/01/12 05:05:50;;;;;;;30.53;20.47;;;7.10;99.90;;;;;;5069485;28;20314;-86
2023/01/12 05:11:47;;;;;;;32.80;19.93;;;7.20;99.90;;;;;;5064621;28;20266;-87
2023/01/12 05:14:36;;;;;;;31.60;20.43;;;7.20;99.90;;;;;;5083563;28;20230;-86
2023/01/12 05:17:24;;;;;;;27.67;19.57;;;7.20;99.90;;;;;;5068989;28;20228;-87
2023/01/12 05:20:14;;;;;;;29.90;19.10;;;7.30;99.90;;;;;;5071845;28;20212;-87
2023/01/12 05:23:02;;;;;;;30.93;19.50;;;7.30;99.90;;;;;;5085648;28;20224;-86
2023/01/12 05:25:52;;;;;;;30.37;19.77;;;7.30;99.90;;;;;;5081477;28;20323;-85
2023/01/12 05:28:41;;;;;;;29.27;20.60;;;7.30;99.90;;;;;;5071083;28;20310;-86
2023/01/12 05:31:30;;;;;;;31.13;20.50;;;7.40;99.90;;;;;;5070840;28;20316;-85
2023/01/12 05:34:20;;;;;;;27.00;18.80;;;7.30;99.90;;;;;;5061767;28;20216;-85
2023/01/12 05:37:08;;;;;;;27.27;20.20;;;7.30;99.90;;;;;;5058091;28;20214;-84
2023/01/12 05:39:57;;;;;;;29.37;20.00;;;7.30;99.90;;;;;;5067227;28;20231;-84
2023/01/12 05:45:56;;;;;;;26.90;19.43;;;7.40;99.90;;;;;;5061681;28;20610;-85
2023/01/12 05:48:45;;;;;;;28.67;20.17;;;7.50;99.90;;;;;;5066429;28;20227;-85
2023/01/12 05:51:33;;;;;;;27.33;19.10;;;7.50;99.90;;;;;;5079108;28;20235;-85
2023/01/12 05:54:23;;;;;;;30.80;20.00;;;7.50;99.90;;;;;;5058184;28;20309;-85
2023/01/12 05:57:11;;;;;;;29.57;19.40;;;7.50;99.90;;;;;;5082499;28;20224;-87
2023/01/12 06:00:02;;;;;;;26.67;18.97;;;7.50;99.90;;;;;;5053298;28;20287;-87
2023/01/12 06:02:59;;;;;;;30.43;19.17;;;7.60;99.90;;;;;;5076938;28;20234;-87
2023/01/12 06:05:54;;;;;;;28.07;19.80;;;7.60;99.90;;;;;;5061388;28;20220;-87
2023/01/12 06:08:43;;;;;;;30.50;19.47;;;7.60;99.90;;;;;;5056072;28;20252;-87
2023/01/12 06:14:39;;;;;;;29.60;19.67;;;7.60;99.90;;;;;;5058799;28;20238;-87
2023/01/12 06:17:32;;;;;;;28.97;19.90;;;7.60;99.90;;;;;;5078858;28;20734;-88
2023/01/12 06:20:22;;;;;;;28.90;20.90;;;7.60;99.90;;;;;;5067849;28;20218;-87
2023/01/12 06:23:12;;;;;;;29.93;19.00;;;7.60;99.90;;;;;;5068740;28;20353;-88
2023/01/12 06:26:02;;;;;;;27.57;19.37;;;7.50;99.90;;;;;;5071867;28;20792;-88
2023/01/12 06:28:52;;;;;;;28.13;19.70;;;7.60;99.90;;;;;;5063117;28;20503;-87
2023/01/12 06:31:42;;;;;;;28.97;20.43;;;7.60;99.90;;;;;;5079115;28;20519;-87
2023/01/12 06:34:35;;;;;;;28.67;19.30;;;7.70;99.90;;;;;;5065867;28;20228;-86
2023/01/12 06:37:24;;;;;;;31.40;19.87;;;7.70;99.90;;;;;;5083814;28;20213;-87
2023/01/12 06:40:13;;;;;;;29.50;21.00;;;7.70;99.90;;;;;;5083322;28;20309;-86
2023/01/12 06:43:02;;;;;;;31.40;20.83;;;7.70;99.90;;;;;;5075141;28;20245;-87
2023/01/12 06:45:53;;;;;;;33.17;20.47;;;7.70;99.90;;;;;;5085266;28;20238;-88
2023/01/12 06:48:42;;;;;;;32.90;21.30;;;7.70;99.90;;;;;;5067970;28;20224;-88
2023/01/12 06:51:33;;;;;;;31.93;21.03;;;7.70;99.90;;;;;;5064117;28;20236;-87
2023/01/12 06:54:22;;;;;;;31.10;20.27;;;7.70;99.90;;;;;;5067339;28;20315;-87
2023/01/12 06:57:11;;;;;;;31.77;21.23;;;7.70;99.90;;;;;;5073293;28;20234;-87
2023/01/12 07:00:00;;;;;;;36.80;21.10;;;7.80;99.90;;;;;;5060701;28;20213;-90
2023/01/12 07:02:50;;;;;;;35.23;20.73;;;7.80;99.90;;;;;;5055864;28;20382;-86
2023/01/12 07:05:39;;;;;;;32.77;21.27;;;7.70;99.90;;;;;;5080919;28;20211;-85
2023/01/12 07:08:29;;;;;;;35.57;21.40;;;7.80;99.90;;;;;;5063556;28;20222;-86
2023/01/12 07:11:18;;;;;;;37.37;22.47;;;7.80;99.90;;;;;;5067609;28;20211;-87
2023/01/12 07:14:07;;;;;;;35.93;22.03;;;7.80;99.90;;;;;;5073910;28;20234;-86
2023/01/12 07:16:56;;;;;;;37.73;21.77;;;7.90;99.90;;;;;;5065057;28;20217;-88
2023/01/12 07:19:45;;;;;;;31.43;22.20;;;7.90;99.90;;;;;;5065728;28;20659;-86
2023/01/12 07:22:34;;;;;;;34.53;21.27;;;7.90;99.90;;;;;;5066482;28;20304;-88
2023/01/12 07:25:24;;;;;;;32.33;21.77;;;7.90;99.90;;;;;;5073608;28;20250;-86
2023/01/12 07:28:13;;;;;;;32.90;21.83;;;8.00;99.90;;;;;;5060220;28;20319;-84
2023/01/12 07:31:03;;;;;;;32.40;20.80;;;8.00;99.90;;;;;;5060988;28;20242;-86
2023/01/12 07:33:52;;;;;;;36.53;21.47;;;7.90;99.90;;;;;;5059112;28;20769;-86
2023/01/12 07:36:41;;;;;;;34.80;22.27;;;7.90;99.90;;;;;;5062969;28;20246;-85
2023/01/12 07:39:31;;;;;;;35.50;21.67;;;8.00;99.90;;;;;;5061780;28;20248;-85
2023/01/12 07:42:25;;;;;;;36.33;21.97;;;8.00;99.90;;;;;;5065307;28;20218;-88
2023/01/12 07:45:22;;;;;;;33.57;20.73;;;8.00;99.90;;;;;;5054280;28;20346;-87
2023/01/12 07:48:11;;;;;;;37.40;22.20;;;8.00;99.90;;;;;;5058384;28;20216;-84
2023/01/12 07:51:00;;;;;;;36.20;21.73;;;8.10;99.90;;;;;;5065419;28;20221;-86
2023/01/12 07:53:49;;;;;;;32.27;21.87;;;8.00;99.90;;;;;;5067124;28;20216;-87
2023/01/12 07:56:38;;;;;;;34.23;21.73;;;8.00;99.90;;;;;;5078015;28;20229;-91
2023/01/12 07:59:28;;;;;;;35.17;21.70;;;8.00;99.90;;;;;;5054816;28;20279;-83
2023/01/12 08:02:18;;;;;;;34.13;21.77;;;8.10;99.90;;;;;;5068227;28;20228;-87
2023/01/12 08:05:07;;;;;;;32.27;21.33;;;8.00;99.90;;;;;;5073158;28;20220;-85
2023/01/12 08:07:56;;;;;;;32.97;21.63;;;8.00;99.90;;;;;;5065037;28;20285;-85
2023/01/12 08:10:48;;;;;;;37.47;23.60;;;8.10;99.90;;;;;;5065981;28;20235;-87
2023/01/12 08:13:39;;;;;;;33.43;22.77;;;8.10;99.90;;;;;;5062322;28;21159;-84
2023/01/12 08:16:34;;;;;;;33.73;22.53;;;8.10;99.90;;;;;;5074489;28;20222;-79
2023/01/12 08:19:29;;;;;;;33.93;22.47;;;8.10;99.90;;;;;;5063793;28;20602;-84
2023/01/12 08:22:23;;;;;;;33.43;21.43;;;8.20;99.90;;;;;;5049550;28;20218;-83
2023/01/12 08:25:16;;;;;;;38.67;21.23;;;8.20;99.90;;;;;;5085772;28;20313;-86
2023/01/12 08:28:08;;;;;;;33.50;20.70;;;8.10;99.90;;;;;;5065350;28;20223;-88
2023/01/12 08:30:57;;;;;;;34.73;20.70;;;8.10;99.90;;;;;;5075022;28;20296;-85
2023/01/12 08:33:48;;;;;;;34.50;21.53;;;8.10;99.90;;;;;;5074473;28;20232;-85
2023/01/12 08:36:38;;;;;;;33.70;20.20;;;8.10;99.90;;;;;;5061194;28;20223;-84
2023/01/12 08:39:28;;;;;;;32.00;20.77;;;8.00;99.90;;;;;;5066458;28;20220;-84
2023/01/12 08:42:17;;;;;;;34.17;20.20;;;8.00;99.90;;;;;;5081813;28;20625;-84
2023/01/12 08:45:08;;;;;;;32.70;20.87;;;8.10;99.90;;;;;;5065180;28;20221;-83
2023/01/12 08:47:56;;;;;;;34.93;20.40;;;8.00;99.90;;;;;;5065193;28;20330;-84
2023/01/12 08:50:47;;;;;;;33.00;18.93;;;8.00;99.90;;;;;;5064345;28;20236;-84
2023/01/12 08:53:36;;;;;;;32.97;19.40;;;8.00;99.90;;;;;;5085082;28;20248;-85
2023/01/12 08:56:24;;;;;;;34.13;19.70;;;8.10;99.90;;;;;;5058098;28;20224;-85
2023/01/12 08:59:14;;;;;;;31.37;19.80;;;8.10;99.90;;;;;;5063423;28;20726;-82
2023/01/12 09:02:04;;;;;;;31.90;19.50;;;8.10;99.90;;;;;;5064288;28;20689;-83
2023/01/12 09:04:53;;;;;;;27.63;19.37;;;8.20;99.90;;;;;;5066233;28;20236;-83
2023/01/12 09:07:43;;;;;;;31.80;18.50;;;8.20;99.90;;;;;;5053375;28;20246;-84
2023/01/12 09:10:33;;;;;;;28.93;19.67;;;8.30;99.90;;;;;;5060417;28;20801;-84
2023/01/12 09:13:22;;;;;;;29.53;19.53;;;8.30;99.90;;;;;;5048655;28;20277;-82
2023/01/12 09:16:13;;;;;;;27.97;18.67;;;8.50;99.90;;;;;;5054757;28;20695;-83
2023/01/12 09:19:02;;;;;;;28.10;18.27;;;8.50;99.90;;;;;;5074275;28;20218;-83
2023/01/12 09:21:51;;;;;;;29.07;16.70;;;8.50;99.90;;;;;;5058078;28;20228;-82
2023/01/12 09:24:42;;;;;;;30.67;17.50;;;8.60;99.90;;;;;;5064703;28;20772;-83
2023/01/12 09:27:30;;;;;;;28.47;16.43;;;8.70;99.90;;;;;;5076372;28;20415;-84
2023/01/12 09:30:19;;;;;;;27.45;16.85;;;8.60;99.90;;;;;;5067223;28;20541;-84
2023/01/12 09:33:08;;;;;;;26.60;15.50;;;8.60;99.90;;;;;;5068854;28;20231;-84
2023/01/12 09:36:01;;;;;;;29.50;16.17;;;8.60;99.90;;;;;;5061012;28;20216;-84
2023/01/12 09:38:50;;;;;;;29.27;16.67;;;8.50;99.90;;;;;;5073756;28;20808;-83
2023/01/12 09:48:13;;;;;;;23.93;14.47;;;8.50;99.90;;;;;;5041648;28;20250;-83
2023/01/12 09:51:09;;;;;;;23.65;14.73;;;8.50;99.90;;;;;;5041543;28;20590;-83
2023/01/12 09:53:58;;;;;;;23.10;14.77;;;8.50;99.90;;;;;;5059799;28;20776;-82
2023/01/12 09:56:57;;;;;;;23.92;14.45;;;8.50;99.90;;;;;;5064580;28;20248;-83
2023/01/12 09:59:58;;;;;;;23.97;14.77;;;8.50;99.90;;;;;;5061130;28;20233;-84
2023/01/12 10:02:51;;;;;;;25.75;14.07;;;8.60;99.90;;;;;;5060735;28;20227;-84
2023/01/12 10:05:44;;;;;;;21.47;13.67;;;8.50;99.90;;;;;;5060115;28;20220;-83
2023/01/12 10:08:36;;;;;;;21.80;13.63;;;8.50;99.90;;;;;;5055949;28;20304;-82
2023/01/12 10:11:32;;;;;;;22.27;13.77;;;8.60;99.90;;;;;;5072786;28;20220;-83
2023/01/12 10:14:37;;;;;;;24.13;13.37;;;8.60;99.90;;;;;;5065760;28;20247;-83
2023/01/12 10:17:34;;;;;;;23.10;13.20;;;8.70;99.90;;;;;;5055802;28;20571;-83
2023/01/12 10:20:39;;;;;;;21.00;13.20;;;8.70;99.90;;;;;;5072329;28;20223;-83
2023/01/12 10:23:29;;;;;;;24.00;12.90;;;8.70;99.90;;;;;;5077513;28;20234;-83
2023/01/12 10:26:22;;;;;;;25.70;12.90;;;8.70;99.90;;;;;;5073046;28;20226;-84
2023/01/12 10:29:12;;;;;;;24.13;12.60;;;8.70;99.90;;;;;;5054250;28;20238;-85
2023/01/12 10:32:02;;;;;;;21.90;13.73;;;8.70;99.90;;;;;;5060327;28;20224;-85
2023/01/12 10:34:52;;;;;;;18.88;13.40;;;8.80;99.90;;;;;;5073606;28;20800;-84
2023/01/12 10:37:48;;;;;;;25.58;13.63;;;8.80;99.90;;;;;;5063701;28;20219;-84
2023/01/12 10:40:37;;;;;;;21.92;13.63;;;8.80;99.90;;;;;;5058702;28;20231;-85
2023/01/12 10:43:31;;;;;;;19.70;13.18;;;8.90;99.90;;;;;;5089895;28;20265;-83
2023/01/12 10:46:22;;;;;;;23.70;13.73;;;8.90;99.90;;;;;;5084031;28;20205;-87
2023/01/12 10:49:20;;;;;;;22.13;12.25;;;8.90;99.90;;;;;;5061227;28;20619;-83
2023/01/12 10:52:20;;;;;;;22.57;12.47;;;9.00;99.90;;;;;;5074618;28;20307;-84
2023/01/12 10:55:19;;;;;;;22.67;12.52;;;9.00;99.90;;;;;;5071645;28;20689;-86
2023/01/12 10:58:20;;;;;;;20.65;12.13;;;9.00;99.90;;;;;;5075541;28;20293;-86
2023/01/12 11:01:13;;;;;;;23.03;12.07;;;9.00;99.90;;;;;;5077858;28;20223;-85
2023/01/12 11:04:05;;;;;;;19.00;12.10;;;9.00;99.90;;;;;;5064011;28;20866;-84
2023/01/12 11:07:02;;;;;;;20.87;11.60;;;9.00;99.90;;;;;;5059152;28;20265;-83
2023/01/12 11:09:54;;;;;;;25.85;11.32;;;9.10;99.90;;;;;;5059495;28;20227;-85
2023/01/12 11:12:42;;;;;;;19.80;11.23;;;9.00;99.90;;;;;;5056262;28;20881;-83
2023/01/12 11:15:37;;;;;;;19.38;11.15;;;9.00;99.90;;;;;;5078072;28;20214;-85
2023/01/12 11:18:37;;;;;;;23.63;12.07;;;9.00;99.90;;;;;;5058612;28;20227;-86
2023/01/12 11:21:31;;;;;;;17.27;10.52;;;9.00;99.90;;;;;;5080088;28;20368;-84
2023/01/12 11:24:42;;;;;;;18.92;10.75;;;9.10;99.90;;;;;;5074670;28;20686;-87
2023/01/12 11:27:35;;;;;;;16.93;10.50;;;9.00;99.90;;;;;;5064160;28;20358;-87
2023/01/12 11:30:31;;;;;;;19.75;9.85;;;9.10;99.90;;;;;;5075124;28;20215;-92
2023/01/12 11:33:24;;;;;;;16.10;9.90;;;9.00;99.90;;;;;;5077140;28;20229;-86
2023/01/12 11:36:19;;;;;;;20.95;9.57;;;9.10;99.90;;;;;;5077346;28;20274;-84
2023/01/12 11:39:13;;;;;;;20.95;10.32;;;9.10;99.90;;;;;;5080934;28;20291;-85
2023/01/12 11:45:23;;;;;;;20.25;10.00;;;9.10;99.90;;;;;;5071001;28;20220;-84
2023/01/12 11:48:22;;;;;;;16.48;9.88;;;9.20;99.90;;;;;;5051617;28;20224;-85
2023/01/12 11:51:12;;;;;;;16.23;10.23;;;9.20;99.90;;;;;;5052692;28;20269;-84
2023/01/12 11:54:01;;;;;;;19.63;9.88;;;9.20;99.90;;;;;;5044593;28;20216;-84
2023/01/12 11:57:13;;;;;;;17.63;9.70;;;9.20;99.90;;;;;;5053058;28;20229;-82
2023/01/12 12:00:16;;;;;;;14.63;10.10;;;9.20;99.90;;;;;;5066218;28;20227;-83
2023/01/12 12:03:27;;;;;;;18.45;9.85;;;9.20;99.90;;;;;;5066582;28;20212;-85
2023/01/12 12:06:50;;;;;;;14.18;9.32;;;9.10;99.90;;;;;;5061255;28;20243;-83
2023/01/12 12:10:00;;;;;;;13.55;8.88;;;9.20;99.90;;;;;;5064346;28;20721;-88
2023/01/12 12:13:13;;;;;;;15.18;8.65;;;9.20;99.90;;;;;;5057011;28;20991;-85
2023/01/12 12:16:20;;;;;;;15.07;8.68;;;9.10;99.90;;;;;;5068387;28;20295;-85
2023/01/12 12:19:26;;;;;;;15.43;8.63;;;9.20;99.90;;;;;;5071195;28;20230;-84
2023/01/12 12:22:26;;;;;;;17.17;9.20;;;9.20;99.90;;;;;;5077936;28;20246;-83
2023/01/12 12:25:27;;;;;;;18.55;8.05;;;9.20;99.90;;;;;;5055779;28;20784;-84
2023/01/12 12:28:42;;;;;;;14.07;8.38;;;9.20;99.90;;;;;;5061177;28;20888;-87
2023/01/12 12:31:48;;;;;;;12.73;7.93;;;9.20;99.90;;;;;;5052209;28;20692;-84
2023/01/12 12:34:54;;;;;;;15.82;8.27;;;9.20;99.90;;;;;;5065576;28;20227;-85
2023/01/12 12:37:52;;;;;;;14.95;8.38;;;9.20;99.90;;;;;;5061907;28;20223;-86
2023/01/12 12:47:40;;;;;;;16.75;8.50;;;9.30;99.90;;;;;;5049359;28;20211;-80
2023/01/12 12:50:32;;;;;;;10.80;7.88;;;9.40;99.90;;;;;;5065766;28;20257;-81
2023/01/12 12:53:26;;;;;;;16.77;8.35;;;9.40;99.90;;;;;;5074991;28;20718;-82
2023/01/12 12:56:17;;;;;;;14.13;8.50;;;9.40;99.90;;;;;;5054132;28;20217;-82
2023/01/12 12:59:51;;;;;;;13.25;8.63;;;9.50;99.90;;;;;;5082352;28;20248;-83
2023/01/12 13:02:52;;;;;;;13.50;9.25;;;9.40;99.90;;;;;;5084850;28;20624;-83
2023/01/12 13:05:46;;;;;;;16.25;9.23;;;9.40;99.90;;;;;;5065157;28;20973;-83
2023/01/12 13:08:36;;;;;;;12.50;8.52;;;9.30;99.90;;;;;;5066275;28;20226;-80
2023/01/12 13:11:52;;;;;;;18.50;9.27;;;9.30;99.90;;;;;;5061064;28;20224;-82
2023/01/12 13:14:43;;;;;;;58.15;36.00;;;9.30;99.90;;;;;;5066870;28;20242;-83
2023/01/12 13:17:44;;;;;;;14.00;8.77;;;9.30;99.90;;;;;;5067253;28;20311;-83
2023/01/12 13:20:58;;;;;;;13.95;9.07;;;9.30;99.90;;;;;;5075769;28;20239;-83
2023/01/12 13:23:51;;;;;;;13.38;8.35;;;9.30;99.90;;;;;;5065428;28;20219;-85
2023/01/12 13:26:44;;;;;;;13.95;8.23;;;9.20;99.90;;;;;;5078655;28;20298;-85
2023/01/12 13:29:47;;;;;;;13.93;8.25;;;9.20;99.90;;;;;;5067431;28;20220;-85
2023/01/12 13:32:49;;;;;;;15.98;8.57;;;9.30;99.90;;;;;;5063754;28;20215;-83
2023/01/12 13:36:03;;;;;;;14.68;8.30;;;9.20;99.90;;;;;;5076598;28;20231;-84
2023/01/12 13:39:02;;;;;;;13.77;8.33;;;9.20;99.90;;;;;;5075920;28;20662;-82
2023/01/12 13:45:00;;;;;;;15.83;7.77;;;9.20;99.90;;;;;;5077650;28;20342;-85
2023/01/12 13:47:51;;;;;;;12.65;8.05;;;9.20;99.90;;;;;;5068295;28;20224;-85
2023/01/12 13:50:47;;;;;;;11.63;7.73;;;9.20;99.90;;;;;;5081056;28;20215;-84
2023/01/12 13:53:36;;;;;;;13.95;7.55;;;9.20;99.90;;;;;;5067100;28;20224;-85
2023/01/12 13:56:25;;;;;;;15.02;7.68;;;9.20;99.90;;;;;;5065446;28;20786;-85
2023/01/12 13:59:17;;;;;;;13.63;7.53;;;9.20;99.90;;;;;;5066646;28;20224;-85
2023/01/12 14:02:18;;;;;;;12.23;7.03;;;9.20;99.90;;;;;;5061983;28;20219;-86
2023/01/12 14:05:24;;;;;;;12.73;7.30;;;9.20;99.90;;;;;;5063693;28;20215;-84
2023/01/12 14:08:39;;;;;;;15.80;7.68;;;9.30;99.90;;;;;;5058393;28;20227;-86
2023/01/12 14:12:01;;;;;;;13.15;6.97;;;9.20;99.90;;;;;;5072915;28;20227;-84
2023/01/12 14:18:28;;;;;;;16.15;7.20;;;9.10;99.90;;;;;;5063100;28;20219;-83
2023/01/12 14:21:23;;;;;;;17.08;7.13;;;9.20;99.90;;;;;;5075641;28;20220;-89
2023/01/12 14:24:17;;;;;;;12.88;6.88;;;9.10;99.90;;;;;;5065329;28;20350;-88
2023/01/12 14:27:17;;;;;;;12.57;7.27;;;9.10;99.90;;;;;;5070533;28;20226;-92
2023/01/12 14:30:12;;;;;;;11.68;7.55;;;9.10;99.90;;;;;;5083464;28;20253;-89
2023/01/12 14:33:01;;;;;;;10.27;6.25;;;9.00;99.90;;;;;;5070481;28;20220;-89
2023/01/12 14:35:54;;;;;;;12.75;6.60;;;9.00;99.90;;;;;;5067624;28;20227;-87
2023/01/12 14:38:44;;;;;;;17.35;10.70;;;9.00;99.90;;;;;;5068520;28;20232;-89
2023/01/12 14:47:54;;;;;;;11.90;5.88;;;8.90;99.90;;;;;;5061629;28;20548;-89
2023/01/12 14:51:03;;;;;;;12.00;6.07;;;8.80;99.90;;;;;;5075945;28;20236;-90
2023/01/12 14:53:58;;;;;;;11.05;5.97;;;8.80;99.90;;;;;;5095302;28;20239;-87
2023/01/12 14:56:55;;;;;;;10.02;6.07;;;8.80;99.90;;;;;;5097401;28;20226;-84
2023/01/12 14:59:46;;;;;;;13.05;6.40;;;8.80;99.90;;;;;;5073227;28;20227;-88
2023/01/12 15:02:38;;;;;;;15.35;6.70;;;8.70;99.90;;;;;;5073401;28;20220;-89
2023/01/12 15:05:29;;;;;;;13.23;6.67;;;8.70;99.90;;;;;;5073201;28;20306;-89
2023/01/12 15:08:25;;;;;;;11.80;6.57;;;8.70;99.90;;;;;;5068561;28;20231;-86
2023/01/12 15:11:14;;;;;;;15.10;6.93;;;8.60;99.90;;;;;;5065038;28;20223;-86
2023/01/12 15:14:06;;;;;;;11.65;6.20;;;8.60;99.90;;;;;;5062471;28;20220;-90
2023/01/12 15:26:19;;;;;;;14.68;7.47;;;8.50;99.90;;;;;;5073395;28;20222;-89
2023/01/12 15:29:09;;;;;;;13.60;6.40;;;8.50;99.90;;;;;;5088230;28;20226;-91
2023/01/12 15:31:57;;;;;;;14.95;6.93;;;8.40;99.90;;;;;;5064700;28;20266;-91
2023/01/12 15:34:47;;;;;;;11.43;6.45;;;8.40;99.90;;;;;;5071498;28;20642;-90
2023/01/12 15:37:36;;;;;;;17.10;7.32;;;8.40;99.90;;;;;;5070158;28;20367;-86
2023/01/12 15:40:27;;;;;;;13.15;7.28;;;8.40;99.90;;;;;;5066380;28;20728;-88
2023/01/12 15:43:17;;;;;;;16.63;7.18;;;8.50;99.90;;;;;;5054391;28;20223;-88
2023/01/12 15:46:06;;;;;;;15.43;9.20;;;8.40;99.90;;;;;;5092249;28;20211;-87
2023/01/12 15:48:55;;;;;;;15.20;7.75;;;8.40;99.90;;;;;;5060925;28;20231;-88
2023/01/12 15:51:47;;;;;;;15.32;7.88;;;8.40;99.90;;;;;;5058540;28;20235;-88
2023/01/12 15:54:36;;;;;;;16.98;8.25;;;8.30;99.90;;;;;;5068525;28;20219;-89